Marion Reef, Australia
Current Conditions -  °F | °C
As of 10:30 PM on Monday 22 Dec 2014 (Local Time) from YBHM Reporting Station
Scattered Clouds Scattered Clouds  
Wind Chill: 79°   Ceiling: Unl
Heat Index: 81°   Visibility: 6mi
Dew Point: 68°   Wind: 22mph
Humidity: 69%   Direction: 120°ESE
Pressure: 29.91"   Gusts: NA
Location:  19.08°S, 152.38°E
Report Text: YBHM 221230Z AUTO 12019KT 9999 // SCT030 26/20 Q1013
Loading
Personal Weather Stations






























Interactive Weather Map New forecast layout! Learn more

10-Day Weather Forecast

Advertisements
Track Severe Weather on mobile